Emre Omur — TCYA7 — position and weather

sailwx.info

Track history (hours):
 
Tides and Currents Weather Stations Pressure Air Temp Water Temp Dewpoint Dewpoint Depression Visibility Wind Speed Wind Dir Waves Ship Positions

Emre Omur

Last reported at 2016-Apr-06 15:29 UTC. Time now 2016-Dec-06 16:08 UTC.
Position N 37°50' E 026°28'.
Warning: this ship's position is months out of date.

Length 64 m; draft 4.9 m.

Type: Tug. MMSI: 271040582.

Date/timePositionNaut miles runAvg speedWind from/ knotsBaromVisibWave heightAir tempDewpointWater temp
2016-Apr-06 15:29N 37°50' E 026°28'4 4.1
2016-Apr-06 14:33N 37°46' E 026°31'5 4.2
2016-Apr-06 13:27N 37°42' E 026°33'31 3.9
2016-Apr-06 05:30N 37°17' E 026°56'4 3.7
2016-Apr-06 04:33N 37°14' E 026°57'5 3.6
2016-Apr-06 03:11N 37°09' E 026°60'2 3.5
2016-Apr-06 02:33N 37°07' E 027°00'3 2.9
2016-Apr-06 01:31N 37°04' E 027°02'0 0.4
2016-Apr-06 00:31N 37°04' E 027°03'  
Track history (hours):
 
Tides and Currents Weather Stations Pressure Air Temp Water Temp Dewpoint Dewpoint Depression Visibility Wind Speed Wind Dir Waves Ship Positions

Emre Omur

Last reported at 2016-Apr-06 15:29 UTC. Time now 2016-Dec-06 16:08 UTC.
Position N 37°50' E 026°28'.
Warning: this ship's position is months out of date.

Length 64 m; draft 4.9 m.

Type: Tug. MMSI: 271040582.

Date/timePositionNaut miles runAvg speedWind from/ knotsBaromVisibWave heightAir tempDewpointWater temp
2016-Apr-06 15:29N 37°50' E 026°28'4 4.1
2016-Apr-06 14:33N 37°46' E 026°31'5 4.2
2016-Apr-06 13:27N 37°42' E 026°33'31 3.9
2016-Apr-06 05:30N 37°17' E 026°56'4 3.7
2016-Apr-06 04:33N 37°14' E 026°57'5 3.6
2016-Apr-06 03:11N 37°09' E 026°60'2 3.5
2016-Apr-06 02:33N 37°07' E 027°00'3 2.9
2016-Apr-06 01:31N 37°04' E 027°02'0 0.4
2016-Apr-06 00:31N 37°04' E 027°03'  

Dump ship's entire track history